Terminal Aerodrome Forecast
Issued by NWS

Home | Current Version | Previous Version | Text Only | Print | Product List | Glossary Off
Versions: 1 2 3 4 5 6 7 8 9 10 11 12 13 14 15

000
FTUS42 KMHX 261100
TAFISO
TAF
KISO 261121Z 2612/2712 36004KT P6SM SKC
     FM261500 04010G16KT P6SM SCT025 BKN050
     FM262000 03012G18KT P6SM SKC
     FM270100 04007KT P6SM SKC
      AMD LTD TO CLD VIS AND WIND=

USA.gov is the U.S. government's official web portal to all federal, state and local government web resources and services.